createdAt,value
2018-05-29T00:01:48.942Z,17.38
2018-05-29T00:04:18.040Z,17.44
2018-05-29T00:06:47.081Z,17.47
2018-05-29T00:09:16.122Z,17.48
2018-05-29T00:11:45.377Z,17.49
2018-05-29T00:14:14.388Z,17.45
2018-05-29T00:16:43.524Z,17.47
2018-05-29T00:19:12.565Z,17.48
2018-05-29T00:21:41.696Z,17.50
2018-05-29T00:24:10.762Z,17.51
2018-05-29T00:26:39.751Z,17.56
2018-05-29T00:29:08.814Z,17.66
2018-05-29T00:31:37.845Z,17.74
2018-05-29T00:34:06.823Z,17.64
2018-05-29T00:36:35.879Z,17.63
2018-05-29T00:39:04.978Z,17.63
2018-05-29T00:41:34.057Z,17.62
2018-05-29T00:44:03.762Z,17.64
2018-05-29T00:46:32.729Z,17.79
2018-05-29T00:49:01.769Z,18.00
2018-05-29T00:51:30.784Z,17.76
2018-05-29T00:53:59.669Z,17.66
2018-05-29T00:56:28.697Z,17.78
2018-05-29T00:58:57.682Z,17.78
2018-05-29T01:01:26.756Z,17.71
2018-05-29T01:03:55.705Z,17.62
2018-05-29T01:06:24.900Z,17.68
2018-05-29T01:08:54.033Z,17.75
2018-05-29T01:11:22.940Z,17.73
2018-05-29T01:13:51.765Z,17.75
2018-05-29T01:16:20.701Z,17.62
2018-05-29T01:18:49.705Z,17.68
2018-05-29T01:21:18.652Z,17.69
2018-05-29T01:23:47.742Z,17.51
2018-05-29T01:26:16.943Z,17.53
2018-05-29T01:28:46.071Z,17.77
2018-05-29T01:31:15.057Z,17.49
2018-05-29T01:33:44.082Z,17.38
2018-05-29T01:36:13.220Z,17.44
2018-05-29T01:38:42.037Z,17.27
2018-05-29T01:41:11.140Z,17.34
2018-05-29T01:43:39.978Z,17.24
2018-05-29T01:46:08.993Z,17.08
2018-05-29T01:48:38.037Z,17.22
2018-05-29T01:51:07.180Z,17.04
2018-05-29T01:53:36.359Z,17.17
2018-05-29T01:56:05.597Z,17.02
2018-05-29T01:58:34.809Z,16.94
2018-05-29T02:01:03.817Z,16.88
2018-05-29T02:03:32.809Z,16.95
2018-05-29T02:06:01.730Z,16.94
2018-05-29T02:08:30.801Z,16.97
2018-05-29T02:10:59.857Z,16.76
2018-05-29T02:13:28.849Z,16.67
2018-05-29T02:15:57.687Z,16.64
2018-05-29T02:18:27.353Z,16.59
2018-05-29T02:21:06.789Z,16.55
2018-05-29T02:23:53.008Z,17.57
2018-05-29T02:26:27.027Z,18.32
2018-05-29T02:28:56.015Z,18.67
2018-05-29T02:31:25.143Z,18.91
2018-05-29T02:33:54.024Z,18.94
2018-05-29T02:36:22.967Z,19.01
2018-05-29T02:38:51.930Z,19.18
2018-05-29T02:41:20.956Z,19.12
2018-05-29T02:43:49.986Z,19.23
2018-05-29T02:46:18.941Z,19.06
2018-05-29T02:48:47.876Z,19.08
2018-05-29T02:51:16.828Z,18.88
2018-05-29T02:53:46.037Z,18.82
2018-05-29T02:56:15.290Z,19.01
2018-05-29T02:58:44.147Z,18.84
2018-05-29T03:01:13.610Z,18.83
2018-05-29T03:03:42.537Z,19.09
2018-05-29T03:06:11.510Z,19.19
2018-05-29T03:08:40.694Z,19.04
2018-05-29T03:11:09.769Z,18.73
2018-05-29T03:13:38.971Z,18.50
2018-05-29T03:16:08.100Z,18.36
2018-05-29T03:18:37.033Z,18.55
2018-05-29T03:21:06.492Z,18.35
2018-05-29T03:23:35.784Z,18.65
2018-05-29T03:26:05.270Z,18.36
2018-05-29T03:28:34.191Z,18.53
2018-05-29T03:31:03.175Z,18.51
2018-05-29T03:33:32.232Z,18.80
2018-05-29T03:36:01.100Z,19.13
2018-05-29T03:38:30.088Z,19.04
2018-05-29T03:40:59.081Z,19.47
2018-05-29T03:43:28.122Z,19.75
2018-05-29T03:45:57.082Z,19.87
2018-05-29T03:48:26.156Z,19.64
2018-05-29T03:50:55.216Z,19.75
2018-05-29T03:53:24.321Z,20.16
2018-05-29T03:55:53.143Z,20.06
2018-05-29T03:58:22.251Z,19.94
2018-05-29T04:00:51.283Z,20.17
2018-05-29T04:03:20.370Z,20.33
2018-05-29T04:05:50.504Z,19.86
2018-05-29T04:08:19.909Z,19.81
2018-05-29T04:10:49.005Z,19.95
2018-05-29T04:13:17.958Z,20.03
2018-05-29T04:15:46.884Z,20.04
2018-05-29T04:18:16.440Z,19.94
2018-05-29T04:20:45.481Z,19.59
2018-05-29T04:23:14.533Z,19.73
2018-05-29T04:28:08.683Z,20.25
2018-05-29T04:30:37.677Z,20.28
2018-05-29T04:33:06.916Z,20.65
2018-05-29T04:35:36.079Z,20.76
2018-05-29T04:38:05.384Z,20.85
2018-05-29T04:40:34.287Z,21.44
2018-05-29T04:43:03.304Z,21.38
2018-05-29T04:45:32.304Z,21.60
2018-05-29T04:48:01.397Z,21.69
2018-05-29T04:50:30.559Z,21.86
2018-05-29T04:52:59.540Z,21.62
2018-05-29T04:55:28.700Z,22.48
2018-05-29T04:57:57.691Z,22.10
2018-05-29T05:00:26.733Z,21.49
2018-05-29T05:02:55.782Z,22.25
2018-05-29T05:05:24.877Z,22.03
2018-05-29T05:07:53.795Z,22.24
2018-05-29T05:10:22.960Z,22.50
2018-05-29T05:12:52.065Z,22.24
2018-05-29T05:15:21.185Z,21.41
2018-05-29T05:17:50.099Z,22.22
2018-05-29T05:20:19.008Z,22.05
2018-05-29T05:22:51.112Z,22.23
2018-05-29T05:25:20.063Z,22.02
2018-05-29T05:27:49.306Z,22.25
2018-05-29T05:30:18.164Z,22.11
2018-05-29T05:32:47.245Z,22.33
2018-05-29T05:35:16.237Z,22.33
2018-05-29T05:37:45.143Z,22.28
2018-05-29T05:40:14.063Z,22.77
2018-05-29T05:42:42.921Z,21.99
2018-05-29T05:45:12.105Z,22.63
2018-05-29T05:47:41.183Z,22.57
2018-05-29T05:50:10.404Z,22.43
2018-05-29T05:52:39.486Z,22.41
2018-05-29T05:55:08.661Z,23.47
2018-05-29T05:57:38.526Z,22.11
2018-05-29T06:00:07.858Z,23.00
2018-05-29T06:02:37.569Z,22.54
2018-05-29T06:05:06.767Z,22.58
2018-05-29T06:07:35.818Z,22.17
2018-05-29T06:10:05.000Z,22.61
2018-05-29T06:12:33.866Z,22.91
2018-05-29T06:15:02.772Z,23.45
2018-05-29T06:17:31.862Z,22.83
2018-05-29T06:20:00.890Z,23.28
2018-05-29T06:22:30.032Z,23.76
2018-05-29T06:24:59.436Z,23.41
2018-05-29T06:27:28.617Z,23.76
2018-05-29T06:29:57.744Z,23.31
2018-05-29T06:32:26.793Z,22.88
2018-05-29T06:34:55.809Z,23.13
2018-05-29T06:37:24.748Z,23.27
2018-05-29T06:39:53.884Z,23.25
2018-05-29T06:42:22.958Z,23.39
2018-05-29T06:44:52.051Z,23.76
2018-05-29T06:47:21.226Z,23.22
2018-05-29T06:49:50.674Z,23.59
2018-05-29T06:52:19.871Z,22.88
2018-05-29T06:54:49.232Z,23.74
2018-05-29T06:57:18.441Z,23.74
2018-05-29T06:59:47.587Z,23.45
2018-05-29T07:02:16.550Z,23.24
2018-05-29T07:04:45.720Z,23.60
2018-05-29T07:07:14.754Z,23.63
2018-05-29T07:09:43.800Z,24.27
2018-05-29T07:12:12.718Z,24.21
2018-05-29T07:14:41.806Z,23.54
2018-05-29T07:17:11.022Z,23.06
2018-05-29T07:19:39.962Z,24.17
2018-05-29T07:22:08.969Z,24.02
2018-05-29T07:24:38.056Z,24.15
2018-05-29T07:27:07.185Z,24.93
2018-05-29T07:29:36.428Z,25.71
2018-05-29T07:32:05.428Z,23.94
2018-05-29T07:34:34.403Z,24.34
2018-05-29T07:37:03.497Z,24.70
2018-05-29T07:39:32.933Z,24.26
2018-05-29T07:42:01.941Z,24.97
2018-05-29T07:44:36.216Z,23.73
2018-05-29T07:47:05.260Z,24.23
2018-05-29T07:49:34.233Z,24.38
2018-05-29T07:52:03.561Z,25.26
2018-05-29T07:54:32.816Z,24.28
2018-05-29T07:57:01.855Z,24.77
2018-05-29T07:59:30.820Z,24.58
2018-05-29T08:01:59.900Z,24.64
2018-05-29T08:04:29.045Z,25.23
2018-05-29T08:06:58.502Z,24.89
2018-05-29T08:09:27.912Z,24.86
2018-05-29T08:11:57.021Z,24.77
2018-05-29T08:14:25.972Z,25.14
2018-05-29T08:16:55.158Z,24.76
2018-05-29T08:19:24.160Z,25.06
2018-05-29T08:21:53.114Z,24.39
2018-05-29T08:24:22.280Z,24.30
2018-05-29T08:26:51.577Z,24.02
2018-05-29T08:29:21.880Z,24.70
2018-05-29T08:31:51.310Z,24.69
2018-05-29T08:34:20.488Z,24.22
2018-05-29T08:36:49.813Z,24.59
2018-05-29T08:39:19.062Z,24.31
2018-05-29T08:41:48.224Z,24.73
2018-05-29T08:44:17.482Z,24.60
2018-05-29T08:46:46.570Z,25.24
2018-05-29T08:49:15.870Z,24.97
2018-05-29T08:51:45.120Z,24.89
2018-05-29T08:54:14.088Z,25.26
2018-05-29T08:56:43.363Z,25.90
2018-05-29T08:59:12.599Z,25.81
2018-05-29T09:01:41.586Z,24.96
2018-05-29T09:04:10.808Z,24.68
2018-05-29T09:06:39.942Z,25.08
2018-05-29T09:09:09.046Z,24.92
2018-05-29T09:11:38.284Z,25.10
2018-05-29T09:14:07.554Z,25.61
2018-05-29T09:16:36.890Z,25.72
2018-05-29T09:19:06.060Z,25.63
2018-05-29T09:21:35.250Z,26.28
2018-05-29T09:24:04.308Z,26.05
2018-05-29T09:26:33.200Z,25.14
2018-05-29T09:29:02.232Z,25.53
2018-05-29T09:31:31.350Z,25.77
2018-05-29T09:34:00.470Z,25.81
2018-05-29T09:36:29.571Z,25.76
2018-05-29T09:38:58.812Z,25.14
2018-05-29T09:41:27.915Z,25.91
2018-05-29T09:43:57.232Z,25.97
2018-05-29T09:46:26.567Z,25.86
2018-05-29T09:48:55.857Z,26.24
2018-05-29T09:51:24.954Z,26.14
2018-05-29T09:53:54.168Z,25.85
2018-05-29T09:56:23.357Z,26.15
2018-05-29T09:58:52.444Z,25.54
2018-05-29T10:01:21.541Z,25.95
2018-05-29T10:03:50.745Z,26.31
2018-05-29T10:06:19.838Z,26.21
2018-05-29T10:08:48.996Z,25.98
2018-05-29T10:11:18.488Z,26.53
2018-05-29T10:13:47.595Z,26.73
2018-05-29T10:16:16.494Z,26.84
2018-05-29T10:18:45.684Z,26.48
2018-05-29T10:21:14.821Z,27.03
2018-05-29T10:23:43.760Z,27.17
2018-05-29T10:26:12.762Z,27.39
2018-05-29T10:28:41.850Z,27.10
2018-05-29T10:31:11.006Z,27.50
2018-05-29T10:33:40.254Z,27.95
2018-05-29T10:36:09.570Z,27.52
2018-05-29T10:38:38.797Z,27.46
2018-05-29T10:41:07.960Z,27.12
2018-05-29T10:43:37.903Z,26.85
2018-05-29T10:46:07.227Z,26.82
2018-05-29T10:48:36.281Z,27.94
2018-05-29T10:51:05.520Z,27.15
2018-05-29T10:53:34.807Z,27.06
2018-05-29T10:56:04.019Z,26.92
2018-05-29T10:58:33.252Z,26.41
2018-05-29T11:01:02.418Z,25.81
2018-05-29T11:03:31.797Z,25.90
2018-05-29T11:06:01.134Z,26.97
2018-05-29T11:08:30.297Z,27.11
2018-05-29T11:10:59.576Z,27.52
2018-05-29T11:13:28.628Z,27.24
2018-05-29T11:15:57.785Z,27.59
2018-05-29T11:18:26.844Z,27.03
2018-05-29T11:20:55.801Z,27.09
2018-05-29T11:23:25.893Z,26.96
2018-05-29T11:25:54.710Z,27.30
2018-05-29T11:28:23.812Z,27.91
2018-05-29T11:30:52.944Z,27.85
2018-05-29T11:33:22.104Z,27.19
2018-05-29T11:35:51.447Z,26.94
2018-05-29T11:38:20.452Z,27.20
2018-05-29T11:40:49.346Z,26.80
2018-05-29T11:43:18.286Z,26.07
2018-05-29T11:45:47.308Z,26.17
2018-05-29T11:48:16.685Z,26.56
2018-05-29T11:50:46.049Z,27.28
2018-05-29T11:53:15.225Z,26.99
2018-05-29T11:55:44.433Z,26.32
2018-05-29T11:58:13.413Z,26.78
2018-05-29T12:00:42.732Z,26.49
2018-05-29T12:03:11.668Z,26.19
2018-05-29T12:05:40.593Z,25.65
2018-05-29T12:08:09.474Z,26.23
2018-05-29T12:10:38.644Z,26.15
2018-05-29T12:13:07.679Z,26.07
2018-05-29T12:15:36.974Z,25.80
2018-05-29T12:18:06.299Z,26.10
2018-05-29T12:20:35.288Z,26.05
2018-05-29T12:23:04.541Z,25.47
2018-05-29T12:25:33.677Z,25.62
2018-05-29T12:28:03.044Z,25.83
2018-05-29T12:30:31.948Z,25.60
2018-05-29T12:33:01.260Z,25.72
2018-05-29T12:35:30.146Z,26.46
2018-05-29T12:37:59.442Z,26.05
2018-05-29T12:40:28.487Z,25.40
2018-05-29T12:42:57.709Z,25.74
2018-05-29T12:45:27.242Z,25.00
2018-05-29T12:47:56.409Z,25.13
2018-05-29T12:50:25.672Z,25.00
2018-05-29T12:52:54.694Z,25.14
2018-05-29T12:55:24.056Z,25.49
2018-05-29T12:57:52.768Z,25.31
2018-05-29T13:00:21.557Z,25.19
2018-05-29T13:02:50.758Z,26.18
2018-05-29T13:05:20.113Z,26.37
2018-05-29T13:07:49.238Z,26.28
2018-05-29T13:10:18.303Z,26.42
2018-05-29T13:12:47.460Z,25.53
2018-05-29T13:15:16.430Z,25.12
2018-05-29T13:17:45.597Z,24.28
2018-05-29T13:20:14.847Z,24.93
2018-05-29T13:22:44.117Z,25.19
2018-05-29T13:25:13.128Z,24.82
2018-05-29T13:27:43.319Z,25.20
2018-05-29T13:30:12.224Z,24.76
2018-05-29T13:32:41.301Z,25.06
2018-05-29T13:35:10.383Z,25.40
2018-05-29T13:37:39.276Z,25.69
2018-05-29T13:40:08.209Z,25.10
2018-05-29T13:42:37.201Z,24.04
2018-05-29T13:45:06.165Z,24.42
2018-05-29T13:47:35.543Z,24.23
2018-05-29T13:50:04.578Z,24.70
2018-05-29T13:52:33.648Z,24.38
2018-05-29T13:55:02.662Z,24.75
2018-05-29T13:57:31.903Z,25.00
2018-05-29T14:00:00.658Z,24.90
2018-05-29T14:02:29.624Z,25.49
2018-05-29T14:04:58.619Z,25.31
2018-05-29T14:07:27.521Z,24.99
2018-05-29T14:09:56.866Z,24.61
2018-05-29T14:12:25.861Z,23.78
2018-05-29T14:14:55.073Z,23.72
2018-05-29T14:17:24.371Z,23.56
2018-05-29T14:19:53.208Z,23.33
2018-05-29T14:22:22.252Z,23.23
2018-05-29T14:24:51.240Z,23.14
2018-05-29T14:27:20.240Z,22.81
2018-05-29T14:29:49.496Z,22.90
2018-05-29T14:32:18.229Z,22.66
2018-05-29T14:34:46.933Z,22.94
2018-05-29T14:37:15.905Z,22.95
2018-05-29T14:39:44.903Z,22.94
2018-05-29T14:42:13.555Z,23.00
2018-05-29T14:44:42.531Z,23.09
2018-05-29T14:47:11.472Z,23.59
2018-05-29T14:49:40.412Z,23.52
2018-05-29T14:52:09.490Z,23.68
2018-05-29T14:54:38.309Z,23.77
2018-05-29T14:57:07.133Z,24.08
2018-05-29T14:59:36.245Z,24.39
2018-05-29T15:02:05.004Z,24.12
2018-05-29T15:04:33.712Z,23.88
2018-05-29T15:07:02.714Z,23.39
2018-05-29T15:09:31.479Z,23.94
2018-05-29T15:12:00.398Z,24.18
2018-05-29T15:14:29.280Z,24.05
2018-05-29T15:16:58.182Z,24.19
2018-05-29T15:19:26.863Z,24.27
2018-05-29T15:21:55.682Z,23.74
2018-05-29T15:24:24.386Z,23.13
2018-05-29T15:26:53.113Z,23.31
2018-05-29T15:29:21.906Z,24.03
2018-05-29T15:31:50.913Z,24.14
2018-05-29T15:34:19.790Z,23.89
2018-05-29T15:36:48.595Z,23.59
2018-05-29T15:39:17.457Z,23.99
2018-05-29T15:41:46.215Z,24.04
2018-05-29T15:44:15.023Z,23.94
2018-05-29T15:46:43.880Z,24.26
2018-05-29T15:49:12.948Z,23.94
2018-05-29T15:51:41.693Z,23.88
2018-05-29T15:54:10.632Z,23.46
2018-05-29T15:56:39.459Z,23.50
2018-05-29T15:59:08.367Z,23.08
2018-05-29T16:01:37.132Z,23.34
2018-05-29T16:04:05.942Z,23.14
2018-05-29T16:06:34.793Z,23.24
2018-05-29T16:09:03.879Z,23.38
2018-05-29T16:11:32.701Z,23.40
2018-05-29T16:14:01.449Z,23.40
2018-05-29T16:16:30.230Z,23.39
2018-05-29T16:18:58.961Z,23.36
2018-05-29T16:21:27.700Z,23.44
2018-05-29T16:23:56.418Z,22.96
2018-05-29T16:26:25.276Z,23.33
2018-05-29T16:28:54.041Z,23.13
2018-05-29T16:31:22.985Z,23.04
2018-05-29T16:33:51.682Z,23.04
2018-05-29T16:36:20.822Z,22.82
2018-05-29T16:38:49.755Z,22.84
2018-05-29T16:41:18.433Z,22.89
2018-05-29T16:43:47.170Z,22.98
2018-05-29T16:46:15.861Z,22.74
2018-05-29T16:48:44.781Z,22.65
2018-05-29T16:51:13.522Z,22.53
2018-05-29T16:53:42.365Z,22.47
2018-05-29T16:56:11.072Z,22.50
2018-05-29T16:58:40.172Z,22.29
2018-05-29T17:01:08.972Z,22.48
2018-05-29T17:03:37.733Z,22.50
2018-05-29T17:06:06.825Z,22.41
2018-05-29T17:08:35.740Z,22.20
2018-05-29T17:11:05.013Z,22.31
2018-05-29T17:13:33.784Z,22.15
2018-05-29T17:16:02.824Z,22.23
2018-05-29T17:18:31.498Z,22.37
2018-05-29T17:21:00.181Z,21.99
2018-05-29T17:23:28.913Z,21.81
2018-05-29T17:25:57.729Z,21.93
2018-05-29T17:28:26.503Z,21.83
2018-05-29T17:30:55.457Z,21.68
2018-05-29T17:33:24.552Z,21.67
2018-05-29T17:35:53.241Z,21.62
2018-05-29T17:38:22.030Z,22.01
2018-05-29T17:40:50.820Z,21.55
2018-05-29T17:43:19.534Z,21.95
2018-05-29T17:45:48.197Z,21.73
2018-05-29T17:48:16.968Z,22.04
2018-05-29T17:50:45.704Z,21.71
2018-05-29T17:53:14.470Z,21.81
2018-05-29T17:55:43.145Z,21.34
2018-05-29T17:58:12.151Z,21.19
2018-05-29T18:00:40.897Z,21.17
2018-05-29T18:03:09.626Z,21.24
2018-05-29T18:05:38.355Z,21.13
2018-05-29T18:08:07.096Z,21.11
2018-05-29T18:10:35.898Z,21.13
2018-05-29T18:13:04.634Z,21.12
2018-05-29T18:15:33.322Z,21.24
2018-05-29T18:18:02.034Z,21.12
2018-05-29T18:20:30.777Z,21.03
2018-05-29T18:22:59.577Z,20.92
2018-05-29T18:25:28.366Z,20.78
2018-05-29T18:27:57.188Z,20.64
2018-05-29T18:30:25.976Z,20.72
2018-05-29T18:32:55.509Z,20.69
2018-05-29T18:35:24.346Z,20.56
2018-05-29T18:37:53.599Z,20.51
2018-05-29T18:40:22.322Z,20.45
2018-05-29T18:42:50.991Z,20.39
2018-05-29T18:45:19.734Z,20.43
2018-05-29T18:47:48.624Z,20.44
2018-05-29T18:50:17.495Z,20.57
2018-05-29T18:52:46.433Z,20.61
2018-05-29T18:55:15.628Z,20.64
2018-05-29T18:57:44.319Z,20.64
2018-05-29T19:00:13.082Z,20.61
2018-05-29T19:02:41.797Z,20.62
2018-05-29T19:05:10.653Z,20.66
2018-05-29T19:07:39.409Z,20.67
2018-05-29T19:10:08.272Z,21.20
2018-05-29T19:12:37.204Z,20.91
2018-05-29T19:15:05.913Z,20.93
2018-05-29T19:17:34.616Z,20.97
2018-05-29T19:20:03.364Z,20.88
2018-05-29T19:22:32.197Z,20.89
2018-05-29T19:25:01.044Z,20.92
2018-05-29T19:27:29.995Z,21.07
2018-05-29T19:29:58.689Z,21.09
2018-05-29T19:32:27.486Z,21.22
2018-05-29T19:34:56.172Z,21.13
2018-05-29T19:37:24.913Z,21.07
2018-05-29T19:39:53.825Z,20.96
2018-05-29T19:42:22.703Z,21.11
2018-05-29T19:44:51.645Z,21.29
2018-05-29T19:47:20.288Z,21.31
2018-05-29T19:49:49.073Z,21.47
2018-05-29T19:52:17.909Z,21.60
2018-05-29T19:54:46.612Z,21.39
2018-05-29T19:57:15.525Z,21.54
2018-05-29T19:59:44.224Z,21.40
2018-05-29T20:02:13.932Z,21.36
2018-05-29T20:04:42.824Z,21.49
2018-05-29T20:07:11.506Z,21.17
2018-05-29T20:09:40.341Z,21.04
2018-05-29T20:12:09.422Z,21.17
2018-05-29T20:14:38.099Z,21.27
2018-05-29T20:17:06.942Z,21.14
2018-05-29T20:19:35.877Z,20.99
2018-05-29T20:22:05.009Z,20.78
2018-05-29T20:24:33.753Z,20.90
2018-05-29T20:27:02.765Z,20.78
2018-05-29T20:29:31.498Z,20.69
2018-05-29T20:32:00.344Z,20.66
2018-05-29T20:34:29.301Z,20.62
2018-05-29T20:36:58.040Z,20.57
2018-05-29T20:39:27.020Z,20.55
2018-05-29T20:41:55.724Z,20.52
2018-05-29T20:44:24.396Z,20.53
2018-05-29T20:46:53.588Z,20.49
2018-05-29T20:49:22.332Z,20.52
2018-05-29T20:51:51.193Z,20.58
2018-05-29T20:54:19.931Z,20.63
2018-05-29T20:56:48.772Z,20.61
2018-05-29T20:59:17.608Z,20.61
2018-05-29T21:01:46.596Z,20.57
2018-05-29T21:04:15.501Z,20.70
2018-05-29T21:06:44.451Z,20.62
2018-05-29T21:09:13.230Z,21.20
2018-05-29T21:11:42.070Z,20.97
2018-05-29T21:14:10.953Z,20.74
2018-05-29T21:16:39.777Z,20.87
2018-05-29T21:19:08.537Z,20.99
2018-05-29T21:21:37.287Z,20.91
2018-05-29T21:24:06.165Z,20.79
2018-05-29T21:26:34.895Z,20.67
2018-05-29T21:29:03.760Z,20.64
2018-05-29T21:31:32.584Z,20.62
2018-05-29T21:34:01.381Z,20.71
2018-05-29T21:36:30.332Z,21.27
2018-05-29T21:38:59.193Z,21.19
2018-05-29T21:41:28.105Z,20.80
2018-05-29T21:43:56.950Z,20.67
2018-05-29T21:46:25.842Z,20.75
2018-05-29T21:48:54.759Z,21.16
2018-05-29T21:51:23.661Z,20.92
2018-05-29T21:53:52.404Z,20.91
2018-05-29T21:56:21.310Z,20.91
2018-05-29T21:58:51.071Z,20.96
2018-05-29T22:01:20.171Z,20.71
2018-05-29T22:03:49.256Z,20.89
2018-05-29T22:06:17.960Z,20.73
2018-05-29T22:08:46.662Z,20.76
2018-05-29T22:11:15.411Z,20.60
2018-05-29T22:13:44.063Z,20.50
2018-05-29T22:16:13.049Z,20.41
2018-05-29T22:18:42.434Z,20.19
2018-05-29T22:21:11.283Z,20.07
2018-05-29T22:23:40.033Z,20.06
2018-05-29T22:26:08.816Z,19.95
2018-05-29T22:28:37.553Z,19.94
2018-05-29T22:31:06.455Z,19.99
2018-05-29T22:33:35.340Z,19.96
2018-05-29T22:36:04.030Z,20.24
2018-05-29T22:38:33.133Z,20.72
2018-05-29T22:41:01.991Z,20.36
2018-05-29T22:43:30.955Z,20.12
2018-05-29T22:45:59.869Z,20.03
2018-05-29T22:48:28.740Z,19.93
2018-05-29T22:50:57.691Z,19.92
2018-05-29T22:53:26.532Z,19.87
2018-05-29T22:55:55.211Z,19.81
2018-05-29T22:58:23.970Z,19.88
2018-05-29T23:00:52.728Z,19.87
2018-05-29T23:03:21.784Z,19.91
2018-05-29T23:05:51.332Z,20.21
2018-05-29T23:08:20.208Z,20.00
2018-05-29T23:10:49.696Z,19.95
2018-05-29T23:13:18.839Z,20.01
2018-05-29T23:15:47.834Z,20.07
2018-05-29T23:18:16.636Z,20.02
2018-05-29T23:20:45.804Z,20.01
2018-05-29T23:23:15.122Z,20.19
2018-05-29T23:25:44.173Z,20.33
2018-05-29T23:28:13.312Z,20.44
2018-05-29T23:30:42.117Z,20.27
2018-05-29T23:33:11.147Z,20.35
2018-05-29T23:35:40.065Z,20.23
2018-05-29T23:38:09.172Z,20.19
2018-05-29T23:40:38.172Z,20.14
2018-05-29T23:43:07.220Z,20.06
2018-05-29T23:45:36.291Z,20.02
2018-05-29T23:48:05.185Z,19.95
2018-05-29T23:50:34.033Z,19.97
2018-05-29T23:53:03.067Z,19.93
2018-05-29T23:55:32.029Z,19.88
2018-05-29T23:58:00.870Z,19.87
